Time;durP1;ratioP1;P1;durP2;ratioP2;P2;SDS_P1;SDS_P2;PMS_P1;PMS_P2;Temp;Humidity;BMP_temperature;BMP_pressure;BME280_temperature;BME280_humidity;BME280_pressure;Samples;Min_cycle;Max_cycle;Signal;HPM_P1;HPM_P2
2023/09/15 00:01:03;;;;;;;10.75;3.45;;;;;;;;;;5053170;28;20041;-65
2023/09/15 00:03:29;;;;;;;7.15;3.33;;;;;;;;;;5052800;28;20049;-65
2023/09/15 00:05:55;;;;;;;9.27;4.18;;;;;;;;;;5053011;28;20148;-65
2023/09/15 00:08:21;;;;;;;8.43;3.05;;;;;;;;;;5052935;28;20041;-65
2023/09/15 00:10:48;;;;;;;6.18;3.30;;;;;;;;;;5052645;28;20407;-65
2023/09/15 00:13:15;;;;;;;8.90;3.58;;;;;;;;;;5052966;28;20049;-65
2023/09/15 00:15:42;;;;;;;7.68;3.45;;;;;;;;;;5052678;28;20049;-65
2023/09/15 00:18:08;;;;;;;6.35;3.60;;;;;;;;;;5032522;28;20060;-65
2023/09/15 00:20:34;;;;;;;8.77;3.50;;;;;;;;;;5033374;28;20045;-65
2023/09/15 00:23:00;;;;;;;9.75;3.55;;;;;;;;;;5032934;28;20051;-65
2023/09/15 00:25:27;;;;;;;9.35;3.95;;;;;;;;;;5037112;28;20037;-65
2023/09/15 00:27:57;;;;;;;7.90;3.47;;;;;;;;;;5052604;28;20047;-65
2023/09/15 00:30:24;;;;;;;6.97;3.60;;;;;;;;;;5052517;28;20124;-65
2023/09/15 00:32:50;;;;;;;8.45;3.45;;;;;;;;;;5052089;28;20051;-65
2023/09/15 00:35:17;;;;;;;6.70;3.20;;;;;;;;;;5052322;28;20280;-65
2023/09/15 00:37:46;;;;;;;6.38;3.70;;;;;;;;;;5052480;28;20289;-65
2023/09/15 00:40:12;;;;;;;6.38;3.53;;;;;;;;;;5051851;28;20395;-65
2023/09/15 00:42:38;;;;;;;11.13;3.72;;;;;;;;;;5034729;28;20040;-65
2023/09/15 00:45:05;;;;;;;6.07;3.20;;;;;;;;;;5052245;28;20391;-65
2023/09/15 00:47:35;;;;;;;6.65;3.40;;;;;;;;;;5033737;28;20049;-65
2023/09/15 00:50:03;;;;;;;9.43;4.05;;;;;;;;;;5052116;28;20056;-65
2023/09/15 00:52:29;;;;;;;6.75;3.50;;;;;;;;;;5052315;28;20037;-65
2023/09/15 00:54:55;;;;;;;6.13;3.47;;;;;;;;;;5051664;28;20045;-65
2023/09/15 00:57:21;;;;;;;8.85;3.72;;;;;;;;;;5034309;28;20084;-65
2023/09/15 00:59:49;;;;;;;8.20;3.63;;;;;;;;;;5052027;28;20032;-65
2023/09/15 01:02:15;;;;;;;9.70;3.50;;;;;;;;;;5033597;28;20071;-65
2023/09/15 01:04:41;;;;;;;12.38;3.58;;;;;;;;;;5051875;28;20037;-65
2023/09/15 01:07:08;;;;;;;5.03;3.08;;;;;;;;;;5051887;28;20064;-65
2023/09/15 01:09:34;;;;;;;7.85;3.53;;;;;;;;;;5033331;28;20067;-65
2023/09/15 01:12:00;;;;;;;10.55;3.53;;;;;;;;;;5050823;28;20033;-65
2023/09/15 01:14:26;;;;;;;7.28;3.35;;;;;;;;;;5051761;28;20040;-65
2023/09/15 01:16:52;;;;;;;6.63;3.38;;;;;;;;;;5041485;28;20336;-65
2023/09/15 01:19:30;;;;;;;7.72;3.30;;;;;;;;;;5031751;28;20099;-65
2023/09/15 01:22:15;;;;;;;8.32;3.45;;;;;;;;;;5031454;28;20045;-65
2023/09/15 01:25:00;;;;;;;9.25;3.67;;;;;;;;;;5031221;28;20033;-65
2023/09/15 01:27:47;;;;;;;8.60;3.47;;;;;;;;;;5031618;28;20488;-65
2023/09/15 01:30:14;;;;;;;10.27;3.00;;;;;;;;;;5031579;28;20730;-65
2023/09/15 01:32:41;;;;;;;7.75;3.20;;;;;;;;;;5031116;28;20512;-65
2023/09/15 01:35:07;;;;;;;10.23;3.47;;;;;;;;;;5031171;28;20038;-65
2023/09/15 01:37:33;;;;;;;6.68;3.40;;;;;;;;;;5031121;28;20416;-65
2023/09/15 01:39:59;;;;;;;9.45;3.58;;;;;;;;;;5030792;28;20037;-65
2023/09/15 01:42:26;;;;;;;7.93;2.90;;;;;;;;;;5031417;28;20416;-65
2023/09/15 01:44:54;;;;;;;7.35;3.20;;;;;;;;;;5031227;28;20120;-65
2023/09/15 01:47:21;;;;;;;7.88;3.33;;;;;;;;;;5031125;28;20093;-65
2023/09/15 01:49:48;;;;;;;5.10;3.50;;;;;;;;;;5031003;28;20488;-65
2023/09/15 01:52:14;;;;;;;7.55;3.88;;;;;;;;;;5031152;28;20507;-65
2023/09/15 01:54:40;;;;;;;8.07;3.58;;;;;;;;;;5030650;28;20038;-65
2023/09/15 01:57:06;;;;;;;8.20;3.70;;;;;;;;;;5031446;28;20045;-65
2023/09/15 01:59:33;;;;;;;6.13;3.30;;;;;;;;;;5031099;28;20503;-65
2023/09/15 02:01:59;;;;;;;6.72;3.33;;;;;;;;;;5030663;28;20049;-65
2023/09/15 02:04:25;;;;;;;6.55;3.30;;;;;;;;;;5031005;28;20041;-65
2023/09/15 02:06:50;;;;;;;7.68;4.18;;;;;;;;;;5030880;28;20369;-65
2023/09/15 02:09:18;;;;;;;6.18;3.63;;;;;;;;;;5030733;28;20029;-65
2023/09/15 02:11:44;;;;;;;7.70;3.58;;;;;;;;;;5030821;28;20041;-65
2023/09/15 02:14:10;;;;;;;11.60;3.38;;;;;;;;;;5031126;28;20047;-65
2023/09/15 02:16:36;;;;;;;6.38;3.53;;;;;;;;;;5037875;28;20044;-65
2023/09/15 02:19:02;;;;;;;7.72;3.72;;;;;;;;;;5050451;28;20041;-65
2023/09/15 02:21:29;;;;;;;7.47;3.25;;;;;;;;;;5050152;28;20045;-65
2023/09/15 02:23:55;;;;;;;7.20;3.22;;;;;;;;;;5049740;28;20511;-65
2023/09/15 02:26:21;;;;;;;4.30;2.70;;;;;;;;;;5038061;28;20037;-65
2023/09/15 02:28:47;;;;;;;7.78;3.30;;;;;;;;;;5012504;28;20439;-65
2023/09/15 02:31:13;;;;;;;6.85;3.35;;;;;;;;;;5030268;28;20124;-65
2023/09/15 02:33:39;;;;;;;7.13;3.10;;;;;;;;;;5012734;28;20507;-65
2023/09/15 02:36:05;;;;;;;6.18;3.42;;;;;;;;;;5030500;28;20068;-65
2023/09/15 02:38:34;;;;;;;8.20;3.28;;;;;;;;;;5030239;28;20400;-65
2023/09/15 02:40:59;;;;;;;7.93;3.28;;;;;;;;;;5030413;28;20403;-65
2023/09/15 02:43:25;;;;;;;6.40;3.60;;;;;;;;;;5030375;28;20048;-65
2023/09/15 02:45:51;;;;;;;7.03;3.28;;;;;;;;;;5029873;28;20738;-65
2023/09/15 02:48:17;;;;;;;4.80;3.20;;;;;;;;;;5030410;28;20476;-65
2023/09/15 02:50:45;;;;;;;5.68;3.40;;;;;;;;;;5030105;28;20092;-65
2023/09/15 02:53:11;;;;;;;8.30;3.40;;;;;;;;;;5030092;28;20443;-65
2023/09/15 02:55:40;;;;;;;10.43;3.35;;;;;;;;;;5030275;28;20045;-65
2023/09/15 02:58:06;;;;;;;7.70;3.75;;;;;;;;;;5012289;28;20132;-65
2023/09/15 03:00:32;;;;;;;11.35;3.72;;;;;;;;;;5029782;28;20038;-65
2023/09/15 03:02:58;;;;;;;9.85;3.72;;;;;;;;;;5030201;28;20041;-65
2023/09/15 03:05:26;;;;;;;5.15;3.35;;;;;;;;;;5029929;28;20053;-65
2023/09/15 03:07:52;;;;;;;6.50;3.42;;;;;;;;;;5029633;28;20120;-65
2023/09/15 03:10:19;;;;;;;10.68;3.95;;;;;;;;;;5030188;28;20041;-65
2023/09/15 03:12:45;;;;;;;10.18;3.58;;;;;;;;;;5030294;28;20404;-65
2023/09/15 03:15:11;;;;;;;7.03;3.55;;;;;;;;;;5029851;28;20435;-65
2023/09/15 03:17:37;;;;;;;8.50;3.50;;;;;;;;;;5027864;28;20487;-65
2023/09/15 03:20:15;;;;;;;6.70;3.38;;;;;;;;;;5032104;28;20045;-65
2023/09/15 03:22:42;;;;;;;7.07;3.35;;;;;;;;;;5049636;28;20045;-65
2023/09/15 03:25:08;;;;;;;8.10;3.35;;;;;;;;;;5047222;28;20086;-65
2023/09/15 03:27:34;;;;;;;8.57;3.60;;;;;;;;;;5029637;28;20188;-65
2023/09/15 03:30:00;;;;;;;6.18;3.33;;;;;;;;;;5029516;28;20354;-65
2023/09/15 03:32:26;;;;;;;9.60;4.57;;;;;;;;;;5029830;28;20498;-65
2023/09/15 03:34:52;;;;;;;9.73;4.07;;;;;;;;;;5031727;28;20041;-65
2023/09/15 03:37:18;;;;;;;8.18;3.97;;;;;;;;;;5033162;28;20095;-65
2023/09/15 03:39:44;;;;;;;4.93;3.20;;;;;;;;;;5033655;28;20409;-65
2023/09/15 03:42:10;;;;;;;6.47;3.90;;;;;;;;;;5033563;28;20316;-65
2023/09/15 03:44:36;;;;;;;9.65;4.20;;;;;;;;;;5032813;28;20053;-65
2023/09/15 03:47:02;;;;;;;11.73;4.28;;;;;;;;;;5033450;28;20041;-65
2023/09/15 03:49:28;;;;;;;7.88;4.50;;;;;;;;;;5015273;28;20065;-65
2023/09/15 03:51:54;;;;;;;8.35;4.00;;;;;;;;;;5032959;28;20046;-65
2023/09/15 03:54:20;;;;;;;7.63;4.10;;;;;;;;;;5033259;28;20426;-65
2023/09/15 03:56:46;;;;;;;9.00;4.55;;;;;;;;;;5033435;28;20038;-65
2023/09/15 03:59:12;;;;;;;11.18;4.38;;;;;;;;;;5032990;28;20405;-65
2023/09/15 04:01:38;;;;;;;9.15;4.15;;;;;;;;;;5033212;28;20068;-65
2023/09/15 04:04:05;;;;;;;7.88;4.53;;;;;;;;;;5032709;28;20128;-65
2023/09/15 04:06:32;;;;;;;6.85;3.90;;;;;;;;;;5032741;28;20480;-65
2023/09/15 04:08:58;;;;;;;7.93;4.18;;;;;;;;;;5032979;28;20046;-65
2023/09/15 04:11:24;;;;;;;8.13;4.55;;;;;;;;;;5032953;28;20388;-65
2023/09/15 04:13:50;;;;;;;9.25;4.53;;;;;;;;;;5032542;28;20407;-65
2023/09/15 04:16:16;;;;;;;5.63;4.28;;;;;;;;;;5037423;28;20127;-65
2023/09/15 04:18:42;;;;;;;6.43;4.38;;;;;;;;;;5052862;28;20080;-65
2023/09/15 04:21:08;;;;;;;7.82;4.30;;;;;;;;;;5052369;28;20052;-65
2023/09/15 04:23:34;;;;;;;8.52;4.45;;;;;;;;;;5034446;28;20047;-65
2023/09/15 04:26:00;;;;;;;9.90;4.30;;;;;;;;;;5042881;28;20053;-65
2023/09/15 04:28:27;;;;;;;7.32;4.28;;;;;;;;;;5032243;28;20041;-65
2023/09/15 04:30:53;;;;;;;11.65;5.30;;;;;;;;;;5032798;28;20088;-65
2023/09/15 04:33:19;;;;;;;7.45;4.63;;;;;;;;;;5032417;28;20097;-65
2023/09/15 04:35:46;;;;;;;6.68;4.55;;;;;;;;;;5032088;28;20452;-65
2023/09/15 04:38:12;;;;;;;6.35;4.53;;;;;;;;;;5014805;28;20049;-65
2023/09/15 04:40:38;;;;;;;5.85;4.13;;;;;;;;;;5032462;28;20071;-65
2023/09/15 04:43:04;;;;;;;8.13;4.55;;;;;;;;;;5033226;28;20049;-65
2023/09/15 04:45:30;;;;;;;6.93;4.55;;;;;;;;;;5032443;28;20045;-65
2023/09/15 04:47:56;;;;;;;8.13;4.28;;;;;;;;;;5033306;28;20044;-65
2023/09/15 04:50:22;;;;;;;8.75;4.70;;;;;;;;;;5032737;28;20053;-65
2023/09/15 04:52:49;;;;;;;6.70;4.60;;;;;;;;;;5015473;28;20103;-65
2023/09/15 04:55:15;;;;;;;8.88;4.38;;;;;;;;;;5033111;28;20472;-65
2023/09/15 04:57:41;;;;;;;11.48;5.03;;;;;;;;;;5051408;28;20127;-65
2023/09/15 05:00:12;;;;;;;8.95;5.03;;;;;;;;;;5053081;28;20124;-65
2023/09/15 05:02:41;;;;;;;10.32;4.78;;;;;;;;;;5052926;28;20068;-65
2023/09/15 05:05:07;;;;;;;7.60;4.22;;;;;;;;;;5052441;28;20047;-65
2023/09/15 05:07:33;;;;;;;9.88;4.57;;;;;;;;;;5052810;28;20048;-65
2023/09/15 05:09:59;;;;;;;7.40;4.63;;;;;;;;;;5052887;28;20044;-65
2023/09/15 05:12:25;;;;;;;8.27;4.80;;;;;;;;;;5052713;28;20040;-65
2023/09/15 05:14:51;;;;;;;6.88;4.30;;;;;;;;;;5053042;28;20131;-65
2023/09/15 05:17:17;;;;;;;8.60;4.15;;;;;;;;;;5053034;28;20057;-65
2023/09/15 05:19:43;;;;;;;10.55;4.68;;;;;;;;;;5053149;28;20079;-65
2023/09/15 05:22:09;;;;;;;7.72;4.47;;;;;;;;;;5052387;28;20464;-65
2023/09/15 05:24:35;;;;;;;8.30;5.03;;;;;;;;;;5052773;28;20037;-65
2023/09/15 05:27:01;;;;;;;5.75;4.47;;;;;;;;;;5034845;28;20041;-65
2023/09/15 05:29:27;;;;;;;8.48;4.75;;;;;;;;;;5032282;28;20113;-65
2023/09/15 05:31:53;;;;;;;9.10;4.63;;;;;;;;;;5032704;28;20050;-65
2023/09/15 05:34:20;;;;;;;9.50;4.85;;;;;;;;;;5032684;28;20041;-65
2023/09/15 05:36:46;;;;;;;10.27;4.88;;;;;;;;;;5032004;28;20071;-65
2023/09/15 05:39:12;;;;;;;6.68;4.43;;;;;;;;;;5032569;28;20116;-65
2023/09/15 05:41:38;;;;;;;7.68;4.43;;;;;;;;;;5032280;28;20533;-65
2023/09/15 05:44:04;;;;;;;8.07;4.50;;;;;;;;;;5032017;28;20053;-65
2023/09/15 05:46:30;;;;;;;8.25;4.38;;;;;;;;;;5014482;28;20042;-65
2023/09/15 05:48:56;;;;;;;11.30;4.38;;;;;;;;;;5032292;28;20042;-65
2023/09/15 05:51:22;;;;;;;8.43;4.80;;;;;;;;;;5031792;28;20523;-65
2023/09/15 05:53:48;;;;;;;7.35;4.25;;;;;;;;;;5031995;28;20054;-65
2023/09/15 05:56:14;;;;;;;8.48;6.20;;;;;;;;;;5013823;28;20633;-65
2023/09/15 05:58:41;;;;;;;9.98;4.93;;;;;;;;;;5031091;28;20088;-65
2023/09/15 06:01:07;;;;;;;6.20;4.60;;;;;;;;;;5031528;28;20049;-66
2023/09/15 06:03:33;;;;;;;7.78;5.38;;;;;;;;;;5031714;28;20052;-65
2023/09/15 06:05:59;;;;;;;6.45;4.38;;;;;;;;;;5031492;28;20052;-65
2023/09/15 06:08:25;;;;;;;7.68;4.85;;;;;;;;;;5031658;28;20038;-65
2023/09/15 06:10:51;;;;;;;8.75;4.72;;;;;;;;;;5014254;28;20050;-65
2023/09/15 06:13:17;;;;;;;6.35;4.25;;;;;;;;;;5031576;28;20120;-65
2023/09/15 06:15:43;;;;;;;9.45;5.47;;;;;;;;;;5031796;28;20436;-65
2023/09/15 06:18:09;;;;;;;11.10;4.88;;;;;;;;;;5051883;28;20041;-65
2023/09/15 06:20:36;;;;;;;12.05;5.47;;;;;;;;;;5051482;28;20141;-65
2023/09/15 06:23:02;;;;;;;9.57;4.93;;;;;;;;;;5051959;28;20472;-65
2023/09/15 06:25:30;;;;;;;8.93;5.32;;;;;;;;;;5028818;28;20042;-65
2023/09/15 06:27:57;;;;;;;8.40;4.70;;;;;;;;;;5031442;28;20456;-65
2023/09/15 06:30:23;;;;;;;6.45;5.00;;;;;;;;;;5031784;28;20116;-65
2023/09/15 06:32:49;;;;;;;14.25;5.45;;;;;;;;;;5021223;28;20064;-65
2023/09/15 06:35:15;;;;;;;11.45;5.03;;;;;;;;;;5069816;28;20044;-65
2023/09/15 06:37:41;;;;;;;14.25;5.35;;;;;;;;;;5052780;28;20116;-64
2023/09/15 06:40:08;;;;;;;10.32;5.82;;;;;;;;;;5070832;28;20056;-65
2023/09/15 06:42:34;;;;;;;7.30;5.15;;;;;;;;;;5047384;28;20479;-65
2023/09/15 06:45:00;;;;;;;9.10;5.10;;;;;;;;;;5052810;28;20491;-65
2023/09/15 06:47:26;;;;;;;9.38;5.00;;;;;;;;;;5051260;28;20391;-65
2023/09/15 06:49:52;;;;;;;11.80;5.68;;;;;;;;;;5050171;28;20056;-65
2023/09/15 06:52:18;;;;;;;8.90;5.65;;;;;;;;;;5061586;28;20045;-65
2023/09/15 06:54:44;;;;;;;7.65;5.22;;;;;;;;;;5070192;28;20451;-64
2023/09/15 06:57:10;;;;;;;8.23;5.35;;;;;;;;;;5070482;28;20045;-64
2023/09/15 06:59:36;;;;;;;15.50;5.10;;;;;;;;;;5066845;28;20116;-65
2023/09/15 07:02:03;;;;;;;9.27;5.05;;;;;;;;;;5052665;28;20045;-64
2023/09/15 07:04:29;;;;;;;11.40;5.15;;;;;;;;;;5063645;28;20059;-64
2023/09/15 07:06:55;;;;;;;9.68;5.45;;;;;;;;;;5070552;28;20208;-65
2023/09/15 07:09:22;;;;;;;10.05;5.90;;;;;;;;;;5073408;28;20060;-64
2023/09/15 07:11:48;;;;;;;11.77;5.72;;;;;;;;;;5067553;28;20083;-64
2023/09/15 07:14:14;;;;;;;14.30;5.90;;;;;;;;;;5073560;28;20360;-64
2023/09/15 07:16:41;;;;;;;8.15;4.90;;;;;;;;;;5059450;28;20072;-64
2023/09/15 07:19:07;;;;;;;10.70;5.35;;;;;;;;;;5073604;28;20048;-64
2023/09/15 07:21:33;;;;;;;11.98;5.50;;;;;;;;;;5074598;28;20444;-64
2023/09/15 07:23:59;;;;;;;10.20;5.75;;;;;;;;;;5073875;28;20048;-64
2023/09/15 07:26:26;;;;;;;8.00;4.90;;;;;;;;;;5065878;28;20455;-63
2023/09/15 07:28:53;;;;;;;10.93;5.72;;;;;;;;;;5074199;28;20522;-64
2023/09/15 07:31:20;;;;;;;8.23;4.90;;;;;;;;;;5063779;28;20071;-64
2023/09/15 07:33:46;;;;;;;10.07;5.32;;;;;;;;;;5070109;28;20098;-64
2023/09/15 07:36:12;;;;;;;9.43;5.53;;;;;;;;;;5074261;28;20036;-64
2023/09/15 07:38:38;;;;;;;12.73;5.20;;;;;;;;;;5073994;28;20079;-64
2023/09/15 07:41:05;;;;;;;11.57;5.75;;;;;;;;;;5073484;28;20931;-64
2023/09/15 07:43:31;;;;;;;8.32;5.47;;;;;;;;;;5073755;28;20078;-64
2023/09/15 07:45:57;;;;;;;7.93;6.05;;;;;;;;;;5054748;28;20392;-64
2023/09/15 07:48:23;;;;;;;12.73;6.28;;;;;;;;;;5073667;28;20036;-64
2023/09/15 07:50:52;;;;;;;12.50;5.72;;;;;;;;;;5065782;28;20061;-65
2023/09/15 07:53:21;;;;;;;10.73;5.20;;;;;;;;;;5045011;28;20077;-64
2023/09/15 07:55:47;;;;;;;16.15;5.50;;;;;;;;;;5049173;28;20167;-64
2023/09/15 07:58:13;;;;;;;8.02;4.78;;;;;;;;;;5053977;28;20041;-63
2023/09/15 08:00:39;;;;;;;8.20;4.93;;;;;;;;;;5059681;28;20036;-65
2023/09/15 08:03:05;;;;;;;8.45;5.22;;;;;;;;;;5067068;28;20044;-65
2023/09/15 08:05:32;;;;;;;9.45;5.40;;;;;;;;;;5051956;28;20044;-65
2023/09/15 08:07:58;;;;;;;7.00;5.13;;;;;;;;;;5067961;28;20560;-65
2023/09/15 08:10:26;;;;;;;15.32;5.80;;;;;;;;;;5047706;28;20131;-65
2023/09/15 08:12:52;;;;;;;7.65;4.38;;;;;;;;;;5047698;28;20055;-65
2023/09/15 08:15:20;;;;;;;14.50;5.68;;;;;;;;;;5057695;28;20110;-64
2023/09/15 08:17:46;;;;;;;6.82;4.63;;;;;;;;;;5042771;28;20594;-66
2023/09/15 08:20:12;;;;;;;10.95;4.30;;;;;;;;;;5050762;28;20463;-66
2023/09/15 08:22:38;;;;;;;9.75;4.68;;;;;;;;;;5038251;28;20068;-65
2023/09/15 08:25:05;;;;;;;7.35;4.05;;;;;;;;;;5065882;28;20048;-66
2023/09/15 08:27:31;;;;;;;8.48;4.18;;;;;;;;;;5037501;28;20126;-66
2023/09/15 08:29:57;;;;;;;9.40;4.10;;;;;;;;;;5050788;28;20119;-65
2023/09/15 08:32:23;;;;;;;11.13;4.60;;;;;;;;;;5044389;28;20067;-64
2023/09/15 08:34:49;;;;;;;7.15;3.63;;;;;;;;;;5052211;28;20388;-64
2023/09/15 08:37:15;;;;;;;12.63;4.40;;;;;;;;;;5070255;28;20052;-63
2023/09/15 08:39:41;;;;;;;8.18;4.30;;;;;;;;;;5058402;28;20041;-64
2023/09/15 08:42:14;;;;;;;9.63;4.43;;;;;;;;;;5054734;28;20119;-65
2023/09/15 08:44:41;;;;;;;8.88;4.05;;;;;;;;;;5047393;28;20064;-65
2023/09/15 08:47:08;;;;;;;11.32;3.67;;;;;;;;;;5070631;28;20041;-64
2023/09/15 08:49:35;;;;;;;8.63;4.00;;;;;;;;;;5055725;28;20055;-64
2023/09/15 08:52:04;;;;;;;9.10;3.78;;;;;;;;;;5054211;28;20037;-65
2023/09/15 08:54:30;;;;;;;10.13;3.75;;;;;;;;;;5059210;28;20045;-65
2023/09/15 08:56:56;;;;;;;7.18;3.33;;;;;;;;;;5067483;28;20048;-66
2023/09/15 08:59:23;;;;;;;7.65;3.88;;;;;;;;;;5041608;28;20040;-65
2023/09/15 09:01:49;;;;;;;8.38;3.60;;;;;;;;;;5058063;28;20064;-65
2023/09/15 09:04:15;;;;;;;8.32;3.40;;;;;;;;;;5044943;28;20565;-65
2023/09/15 09:06:42;;;;;;;7.07;3.25;;;;;;;;;;5057683;28;20037;-65
2023/09/15 09:09:09;;;;;;;14.32;3.63;;;;;;;;;;5068466;28;20041;-66
2023/09/15 09:11:36;;;;;;;8.25;2.90;;;;;;;;;;5053162;28;20472;-66
2023/09/15 09:14:04;;;;;;;10.35;2.85;;;;;;;;;;5048796;28;20373;-66
2023/09/15 09:16:31;;;;;;;11.35;2.85;;;;;;;;;;5058053;28;20055;-64
2023/09/15 09:18:58;;;;;;;8.98;3.05;;;;;;;;;;5070621;28;20143;-65
2023/09/15 09:21:27;;;;;;;6.78;2.78;;;;;;;;;;5052405;28;20884;-65
2023/09/15 09:23:54;;;;;;;7.20;2.65;;;;;;;;;;5053578;28;20040;-65
2023/09/15 09:26:20;;;;;;;6.53;2.75;;;;;;;;;;5019899;28;20048;-64
2023/09/15 09:28:46;;;;;;;8.02;2.88;;;;;;;;;;5055946;28;20040;-65
2023/09/15 09:31:13;;;;;;;7.20;2.63;;;;;;;;;;5026782;28;20128;-65
2023/09/15 09:33:39;;;;;;;4.93;2.78;;;;;;;;;;5050686;28;20043;-66
2023/09/15 09:36:15;;;;;;;5.07;2.30;;;;;;;;;;5070714;28;20125;-66
2023/09/15 09:38:44;;;;;;;6.95;2.17;;;;;;;;;;5065320;28;20040;-66
2023/09/15 09:41:11;;;;;;;7.45;2.40;;;;;;;;;;5070477;28;20511;-65
2023/09/15 09:43:39;;;;;;;4.72;2.28;;;;;;;;;;5070031;28;20403;-65
2023/09/15 09:46:09;;;;;;;5.13;2.20;;;;;;;;;;5070865;28;20445;-66
2023/09/15 09:48:39;;;;;;;4.65;2.47;;;;;;;;;;5068418;28;20414;-65
2023/09/15 09:51:05;;;;;;;7.75;2.30;;;;;;;;;;5059637;28;20114;-64
2023/09/15 09:53:32;;;;;;;6.43;2.50;;;;;;;;;;5068956;28;20055;-65
2023/09/15 09:56:02;;;;;;;13.65;2.92;;;;;;;;;;5053230;28;20060;-65
2023/09/15 09:58:28;;;;;;;7.07;2.42;;;;;;;;;;5047013;28;20595;-64
2023/09/15 10:00:54;;;;;;;7.22;2.80;;;;;;;;;;5069919;28;20825;-65
2023/09/15 10:03:23;;;;;;;5.90;2.63;;;;;;;;;;5057922;28;20479;-65
2023/09/15 10:05:49;;;;;;;6.15;2.10;;;;;;;;;;5042976;28;20041;-66
2023/09/15 10:08:16;;;;;;;5.75;2.38;;;;;;;;;;5057690;28;20064;-67
2023/09/15 10:10:44;;;;;;;6.97;2.25;;;;;;;;;;5059483;28;20039;-66
2023/09/15 10:13:16;;;;;;;8.00;2.67;;;;;;;;;;5064051;28;20040;-66
2023/09/15 10:15:42;;;;;;;8.52;3.35;;;;;;;;;;5059515;28;21070;-66
2023/09/15 10:18:09;;;;;;;5.65;2.10;;;;;;;;;;5037672;28;20076;-66
2023/09/15 10:20:36;;;;;;;5.88;2.47;;;;;;;;;;5017154;28;20043;-66
2023/09/15 10:23:04;;;;;;;5.30;2.15;;;;;;;;;;5056757;28;20446;-65
2023/09/15 10:25:39;;;;;;;5.20;2.50;;;;;;;;;;5046371;28;20045;-64
2023/09/15 10:28:06;;;;;;;6.93;2.70;;;;;;;;;;5036187;28;20049;-65
2023/09/15 10:30:36;;;;;;;5.68;2.30;;;;;;;;;;5055999;28;20411;-65
2023/09/15 10:33:03;;;;;;;8.32;2.60;;;;;;;;;;5058533;28;20041;-65
2023/09/15 10:35:29;;;;;;;7.75;2.63;;;;;;;;;;5050419;28;20037;-66
2023/09/15 10:38:02;;;;;;;10.68;2.70;;;;;;;;;;5055931;28;20044;-66
2023/09/15 10:40:29;;;;;;;4.43;2.20;;;;;;;;;;5051297;28;20426;-66
2023/09/15 10:42:55;;;;;;;7.28;2.50;;;;;;;;;;5028287;28;20048;-66
2023/09/15 10:45:22;;;;;;;4.00;2.30;;;;;;;;;;5058398;28;20041;-67
2023/09/15 10:48:00;;;;;;;8.63;2.63;;;;;;;;;;5051056;28;20040;-66
2023/09/15 10:50:32;;;;;;;4.20;2.40;;;;;;;;;;5057037;28;20167;-68
2023/09/15 10:53:11;;;;;;;9.25;2.25;;;;;;;;;;5037397;28;20127;-67
2023/09/15 10:55:37;;;;;;;4.15;2.00;;;;;;;;;;5039336;28;20044;-67
2023/09/15 10:58:06;;;;;;;4.05;1.98;;;;;;;;;;5035081;28;20474;-68
2023/09/15 11:00:33;;;;;;;4.18;2.33;;;;;;;;;;5039451;28;20048;-68
2023/09/15 11:02:59;;;;;;;5.20;2.35;;;;;;;;;;5056542;28;20045;-65
2023/09/15 11:05:28;;;;;;;8.88;2.33;;;;;;;;;;5056925;28;20394;-67
2023/09/15 11:07:56;;;;;;;5.20;2.05;;;;;;;;;;5061619;28;20073;-68
2023/09/15 11:10:35;;;;;;;7.13;2.38;;;;;;;;;;5048151;28;20437;-66
2023/09/15 11:13:01;;;;;;;4.25;2.08;;;;;;;;;;5043636;28;20044;-66
2023/09/15 11:15:28;;;;;;;5.32;2.33;;;;;;;;;;5043900;28;20044;-67
2023/09/15 11:17:54;;;;;;;3.70;1.90;;;;;;;;;;5052307;28;20096;-67
2023/09/15 11:20:21;;;;;;;5.18;1.90;;;;;;;;;;5049761;28;20125;-67
2023/09/15 11:22:47;;;;;;;4.80;2.10;;;;;;;;;;5039328;28;20032;-67
2023/09/15 11:25:15;;;;;;;5.22;2.10;;;;;;;;;;5043122;28;20383;-62
2023/09/15 11:27:41;;;;;;;4.90;1.70;;;;;;;;;;5048503;28;20040;-65
2023/09/15 11:30:07;;;;;;;4.82;1.90;;;;;;;;;;5029952;28;20098;-64
2023/09/15 11:32:34;;;;;;;5.65;1.90;;;;;;;;;;5030477;28;20136;-64
2023/09/15 11:35:05;;;;;;;8.95;2.40;;;;;;;;;;5012498;28;20041;-64
2023/09/15 11:37:31;;;;;;;6.88;2.45;;;;;;;;;;5030492;28;20100;-64
2023/09/15 11:39:57;;;;;;;11.88;2.35;;;;;;;;;;5030501;28;20115;-65
2023/09/15 11:42:24;;;;;;;5.22;2.40;;;;;;;;;;5030975;28;20042;-65
2023/09/15 11:44:50;;;;;;;4.50;1.85;;;;;;;;;;5030018;28;20091;-65
2023/09/15 11:47:17;;;;;;;6.30;1.98;;;;;;;;;;5012796;28;20088;-65
2023/09/15 11:49:43;;;;;;;4.95;1.90;;;;;;;;;;5030375;28;20089;-65
2023/09/15 11:52:11;;;;;;;4.80;1.90;;;;;;;;;;5030348;28;20049;-65
2023/09/15 11:54:37;;;;;;;8.60;2.50;;;;;;;;;;5030385;28;20099;-65
2023/09/15 11:57:04;;;;;;;5.60;1.90;;;;;;;;;;5034416;28;20045;-65
2023/09/15 11:59:30;;;;;;;5.88;2.40;;;;;;;;;;5033813;28;20049;-65
2023/09/15 12:01:59;;;;;;;6.13;2.17;;;;;;;;;;5034252;28;20038;-65
2023/09/15 12:04:27;;;;;;;5.50;2.15;;;;;;;;;;5033769;28;20044;-65
2023/09/15 12:06:54;;;;;;;6.03;2.33;;;;;;;;;;5033877;28;20049;-64
2023/09/15 12:09:22;;;;;;;6.00;2.13;;;;;;;;;;5034209;28;20029;-64
2023/09/15 12:11:48;;;;;;;7.30;2.30;;;;;;;;;;5034062;28;20045;-65
2023/09/15 12:14:14;;;;;;;4.88;2.17;;;;;;;;;;5033350;28;20042;-65
2023/09/15 12:16:44;;;;;;;5.00;1.92;;;;;;;;;;5041692;28;20045;-65
2023/09/15 12:19:11;;;;;;;5.40;2.10;;;;;;;;;;5053651;28;20405;-65
2023/09/15 12:21:37;;;;;;;4.30;2.10;;;;;;;;;;5053617;28;20037;-65
2023/09/15 12:24:10;;;;;;;2.88;1.75;;;;;;;;;;5053238;28;20437;-65
2023/09/15 12:26:37;;;;;;;5.20;2.17;;;;;;;;;;5053605;28;20388;-65
2023/09/15 12:29:03;;;;;;;6.30;2.22;;;;;;;;;;5053320;28;20171;-65
2023/09/15 12:31:29;;;;;;;7.40;2.25;;;;;;;;;;5036042;28;20041;-65
2023/09/15 12:33:56;;;;;;;6.00;2.03;;;;;;;;;;5053145;28;20517;-65
2023/09/15 12:36:22;;;;;;;6.65;2.17;;;;;;;;;;5053662;28;20048;-65
2023/09/15 12:38:50;;;;;;;4.88;2.25;;;;;;;;;;5053385;28;20040;-65
2023/09/15 12:41:16;;;;;;;5.57;1.80;;;;;;;;;;5053448;28;20053;-65
2023/09/15 12:43:43;;;;;;;5.25;2.13;;;;;;;;;;5052882;28;20041;-65
2023/09/15 12:46:09;;;;;;;5.38;1.92;;;;;;;;;;5034529;28;20044;-65
2023/09/15 12:48:35;;;;;;;3.78;1.80;;;;;;;;;;5052890;28;20040;-65
2023/09/15 12:51:02;;;;;;;4.05;1.90;;;;;;;;;;5052635;28;20145;-65
2023/09/15 12:53:28;;;;;;;6.18;2.25;;;;;;;;;;5052557;28;20076;-65
2023/09/15 12:55:55;;;;;;;4.90;2.10;;;;;;;;;;5053066;28;20041;-65
2023/09/15 12:58:21;;;;;;;13.32;3.00;;;;;;;;;;5053105;28;20124;-65
2023/09/15 13:00:47;;;;;;;6.13;2.40;;;;;;;;;;5052773;28;20135;-65
2023/09/15 13:03:13;;;;;;;5.47;1.80;;;;;;;;;;5052586;28;20132;-65
2023/09/15 13:05:39;;;;;;;5.60;2.22;;;;;;;;;;5052319;28;20107;-65
2023/09/15 13:08:05;;;;;;;4.45;1.98;;;;;;;;;;5052595;28;20037;-65
2023/09/15 13:10:34;;;;;;;6.53;2.22;;;;;;;;;;5052963;28;20033;-65
2023/09/15 13:13:00;;;;;;;6.47;2.03;;;;;;;;;;5052672;28;20419;-65
2023/09/15 13:15:26;;;;;;;6.00;2.22;;;;;;;;;;5052387;28;20029;-65
2023/09/15 13:17:52;;;;;;;5.00;2.30;;;;;;;;;;5034759;28;20840;-65
2023/09/15 13:20:18;;;;;;;6.28;1.92;;;;;;;;;;5032846;28;20049;-65
2023/09/15 13:22:44;;;;;;;6.10;2.28;;;;;;;;;;5032312;28;20060;-65
2023/09/15 13:25:10;;;;;;;4.35;1.90;;;;;;;;;;5034860;28;20037;-65
2023/09/15 13:27:42;;;;;;;7.35;2.03;;;;;;;;;;5052490;28;20083;-65
2023/09/15 13:30:09;;;;;;;5.40;2.22;;;;;;;;;;5052021;28;20110;-65
2023/09/15 13:32:35;;;;;;;4.90;2.25;;;;;;;;;;5052506;28;20061;-65
2023/09/15 13:35:01;;;;;;;7.07;1.95;;;;;;;;;;5051949;28;20529;-62
2023/09/15 13:37:27;;;;;;;4.20;1.73;;;;;;;;;;5034085;28;20045;-62
2023/09/15 13:39:53;;;;;;;6.18;2.08;;;;;;;;;;5052249;28;20049;-62
2023/09/15 13:42:30;;;;;;;9.77;2.20;;;;;;;;;;5052404;28;20037;-62
2023/09/15 13:44:56;;;;;;;5.50;2.20;;;;;;;;;;5051241;28;20073;-62
2023/09/15 13:47:22;;;;;;;5.47;2.25;;;;;;;;;;5052182;28;20483;-62
2023/09/15 13:49:48;;;;;;;6.00;2.00;;;;;;;;;;5049985;28;20045;-62
2023/09/15 13:52:14;;;;;;;6.47;2.50;;;;;;;;;;5051542;28;20067;-63
2023/09/15 13:54:40;;;;;;;4.55;2.40;;;;;;;;;;5047390;28;20460;-63
2023/09/15 13:57:06;;;;;;;6.40;2.30;;;;;;;;;;5051805;28;20047;-62
2023/09/15 13:59:32;;;;;;;7.13;2.60;;;;;;;;;;5051461;28;20053;-62
2023/09/15 14:01:58;;;;;;;7.60;2.33;;;;;;;;;;5051622;28;20044;-63
2023/09/15 14:04:24;;;;;;;5.65;2.00;;;;;;;;;;5051605;28;20056;-62
2023/09/15 14:06:52;;;;;;;6.93;2.08;;;;;;;;;;5051510;28;20045;-62
2023/09/15 14:09:18;;;;;;;4.75;2.20;;;;;;;;;;5051705;28;20044;-62
2023/09/15 14:11:45;;;;;;;8.35;2.17;;;;;;;;;;5051707;28;20040;-62
2023/09/15 14:14:12;;;;;;;3.67;2.10;;;;;;;;;;5051052;28;20120;-62
2023/09/15 14:16:38;;;;;;;5.65;2.33;;;;;;;;;;5043817;28;20037;-62
2023/09/15 14:19:04;;;;;;;4.68;2.35;;;;;;;;;;5031257;28;20045;-62
2023/09/15 14:21:32;;;;;;;4.95;2.35;;;;;;;;;;5013722;28;20741;-63
2023/09/15 14:23:58;;;;;;;4.72;2.20;;;;;;;;;;5031217;28;20103;-62
2023/09/15 14:26:24;;;;;;;7.72;2.92;;;;;;;;;;5044177;28;20048;-62
2023/09/15 14:28:50;;;;;;;5.28;2.30;;;;;;;;;;5033492;28;20039;-62
2023/09/15 14:31:16;;;;;;;3.85;2.20;;;;;;;;;;5051557;28;20067;-62
2023/09/15 14:33:42;;;;;;;3.97;2.33;;;;;;;;;;5050890;28;20033;-62
2023/09/15 14:36:09;;;;;;;7.75;2.70;;;;;;;;;;5051057;28;20037;-62
2023/09/15 14:38:35;;;;;;;6.20;1.95;;;;;;;;;;5033407;28;20051;-62